• Join FlightAware (Why Join?)
  • Login
  • US Flag 
05:07AM EDT


 

Airport Tracker/Info


-or-


 

Live Flight TrackerFlight Track Log ✈ SWA2009 ✈ 13-Apr-2013 ✈ KLAS - KSNA

Flight Track Log - Related Links

Times and Time Zones

All times are in EDT time to prevent confusion due to time zone crossing. See the SWA2009 flight status page for this flight to view local times or setup timezone preferences in your user account.

Time Position Orientation Groundspeed Altitude Reporting Facility
EDT Latitude Longitude Course Direction KTS MPH feet Rate Location/Type
07:13PM 36.0778 -115.1756 266° West 169 194 3,500  Level Los Angeles Center
07:14PM 36.0739 -115.2381 266° West 215 247 5,800 2,100 Climbing Los Angeles Center
07:15PM 36.0372 -115.2692 214° Southwest 231 266 7,100 1,140 Climbing Los Angeles Center
07:16PM 35.9675 -115.2997 200° South 256 295 7,900 2,220 Climbing Los Angeles Center
07:17PM 35.8922 -115.3103 186° South 264 304 11,700 3,240 Climbing Los Angeles Center
07:18PM 35.8000 -115.3081 179° South 303 349 14,600 2,580 Climbing Los Angeles Center
07:19PM 35.6981 -115.2961 175° South 358 412 17,000 2,520 Climbing Los Angeles Center
07:20PM 35.5992 -115.4003 221° Southwest 382 440 19,800 2,220 Climbing Los Angeles Center
07:21PM 35.5236 -115.5019 228° Southwest 393 452 21,700 2,040 Climbing Los Angeles Center
07:22PM 35.4386 -115.6169 228° Southwest 427 491 24,100 2,100 Climbing Los Angeles Center
07:23PM 35.3528 -115.7300 227° Southwest 446 513 26,100 1,860 Climbing Los Angeles Center
07:24PM 35.2669 -115.8450 228° Southwest 455 524 28,000 900 Climbing Los Angeles Center
07:25PM 35.1817 -115.9592 228° Southwest 455 524 28,000  Level Los Angeles Center
07:26PM 35.0944 -116.0731 227° Southwest 458 527 28,000  Level Los Angeles Center
07:27PM 35.0078 -116.1889 228° Southwest 463 533 28,000  Level Los Angeles Center
07:28PM 34.9178 -116.3028 226° Southwest 464 534 28,000 -300 Level Los Angeles Center
07:29PM 34.8317 -116.4169 227° Southwest 460 529 27,500 -1,980 Descending Los Angeles Center
07:30PM 34.7275 -116.5489 226° Southwest 450 518 24,000 -1,980 Descending Los Angeles Center
07:31PM 34.6428 -116.6511 225° Southwest 427 491 23,500 -1,080 Descending Los Angeles Center
07:32PM 34.5647 -116.7464 225° Southwest 401 461 21,800 -1,920 Descending Los Angeles Center
07:33PM 34.4889 -116.8386 225° Southwest 388 447 19,600 -2,220 Descending Los Angeles Center
07:34PM 34.4153 -116.9283 225° Southwest 376 433 17,300 -2,220 Descending Los Angeles Center
07:35PM 34.3433 -117.0147 225° Southwest 367 422 15,100 -2,100 Descending Los Angeles Center
07:36PM 34.2719 -117.0978 224° Southwest 359 413 13,000 -1,140 Descending Los Angeles Center
07:37PM 34.1783 -117.1267 194° South 352 405 12,800 -660 Descending Los Angeles Center
07:38PM 34.1167 -117.1500 197° South 345 397 12,000 -540 Descending Southern California TRACON
07:39PM 34.0167 -117.1833 195° South 339 390 12,000 -600 Level Southern California TRACON
07:40PM 33.9333 -117.2000 189° South 341 392 10,900 -1,080 Descending Southern California TRACON
07:41PM 33.8667 -117.2833 226° Southwest 307 353 9,900 -900 Descending Southern California TRACON
07:42PM 33.8619 -117.3144 260° West 290 334 9,500 -900 Descending Los Angeles Center
07:43PM 33.8356 -117.4000 250° West 274 315 8,500 -540 Descending Los Angeles Center
07:44PM 33.8064 -117.4967 250° West 257 296 8,400 -540 Descending Los Angeles Center
07:45PM 33.7892 -117.5594 252° West 207 238 7,500 -960 Descending Los Angeles Center
07:46PM 33.7833 -117.6233 264° West 200 230 6,500 -900 Descending Los Angeles Center
07:46PM 33.7833 -117.6333 270° West 194 223 6,400 -900 Descending Southern California TRACON
07:47PM 33.8333 -117.6833 320° Northwest 187 215 5,400 -600 Descending Southern California TRACON
07:48PM 33.8667 -117.7167 320° Northwest 185 213 5,200 -900 Descending Southern California TRACON
07:49PM 33.8500 -117.7667 248° West 178 205 3,600 -1,200 Descending Southern California TRACON
07:50PM 33.8000 -117.7833 195° South 138 159 2,900 -840 Descending Southern California TRACON
07:51PM 33.7667 -117.8000 203° Southwest 134 154 2,000 -780 Descending Southern California TRACON
07:52PM 33.7333 -117.8333 220° Southwest 133 153 1,400 -660 Descending Southern California TRACON
07:53PM 33.7167 -117.8500 220° Southwest 133 153 700 -720 Descending Southern California TRACON
07:56PM 33.6757 -117.8682 132° Southeast  Level Estimated
08:03PM 33.6757 -117.8682 132° Southeast  Level Estimated